Time;durP1;ratioP1;P1;durP2;ratioP2;P2;SDS_P1;SDS_P2;PMS_P1;PMS_P2;Temp;Humidity;BMP_temperature;BMP_pressure;BME280_temperature;BME280_humidity;BME280_pressure;Samples;Min_cycle;Max_cycle;Signal;HPM_P1;HPM_P2
2021/10/05 00:00:29;;;;;;;3.67;3.47;;;14.90;99.90;;;;;;5014037;28;20241;-68
2021/10/05 00:02:55;;;;;;;4.60;4.20;;;14.90;99.90;;;;;;5014701;28;20215;-69
2021/10/05 00:05:20;;;;;;;4.30;3.90;;;14.90;99.90;;;;;;5014193;28;20232;-69
2021/10/05 00:07:46;;;;;;;4.17;3.97;;;14.90;99.90;;;;;;5012958;28;20189;-69
2021/10/05 00:10:12;;;;;;;4.17;3.87;;;14.80;99.90;;;;;;5013917;28;20177;-75
2021/10/05 00:12:38;;;;;;;4.57;4.13;;;14.80;99.90;;;;;;5014468;28;20629;-69
2021/10/05 00:15:06;;;;;;;4.67;4.33;;;14.80;99.90;;;;;;5014412;28;20433;-69
2021/10/05 00:17:32;;;;;;;4.33;4.03;;;14.80;99.90;;;;;;5013547;28;20859;-68
2021/10/05 00:19:59;;;;;;;4.00;3.80;;;14.70;99.90;;;;;;5014257;28;20830;-69
2021/10/05 00:22:25;;;;;;;4.53;4.23;;;14.70;99.90;;;;;;5013474;28;20215;-69
2021/10/05 00:24:51;;;;;;;3.97;3.77;;;14.70;99.90;;;;;;5014295;28;20425;-68
2021/10/05 00:27:16;;;;;;;4.30;3.90;;;14.70;99.90;;;;;;5013696;28;20404;-69
2021/10/05 00:29:42;;;;;;;3.73;3.63;;;14.70;99.90;;;;;;5013974;28;20179;-68
2021/10/05 00:32:08;;;;;;;3.80;3.60;;;14.70;99.90;;;;;;5012818;28;20632;-68
2021/10/05 00:34:34;;;;;;;4.17;3.87;;;14.70;99.90;;;;;;5013667;28;20181;-68
2021/10/05 00:37:00;;;;;;;4.20;4.10;;;14.70;99.90;;;;;;5014003;28;20410;-68
2021/10/05 00:39:26;;;;;;;4.47;4.17;;;14.70;99.90;;;;;;5012369;28;20192;-69
2021/10/05 00:41:53;;;;;;;4.20;3.90;;;14.80;99.90;;;;;;5013497;28;20627;-68
2021/10/05 00:44:39;;;;;;;3.90;3.70;;;14.70;99.90;;;;;;5013260;28;20494;-69
2021/10/05 00:47:08;;;;;;;3.23;3.13;;;14.60;99.90;;;;;;5014042;28;20421;-68
2021/10/05 00:49:34;;;;;;;3.20;3.00;;;14.60;99.90;;;;;;5013230;28;20769;-68
2021/10/05 00:52:01;;;;;;;2.90;2.80;;;14.40;99.90;;;;;;5013761;28;20433;-68
2021/10/05 00:54:27;;;;;;;3.10;2.90;;;14.20;99.90;;;;;;5013103;28;20489;-69
2021/10/05 00:56:54;;;;;;;3.23;3.13;;;14.10;99.90;;;;;;5013700;28;20876;-68
2021/10/05 00:59:19;;;;;;;3.37;3.17;;;13.90;99.90;;;;;;5013066;28;20476;-69
2021/10/05 01:01:45;;;;;;;3.50;3.30;;;13.90;99.90;;;;;;5013274;28;20532;-69
2021/10/05 01:04:11;;;;;;;3.30;3.10;;;13.80;99.90;;;;;;5013443;28;20222;-68
2021/10/05 01:06:47;;;;;;;3.37;3.17;;;13.90;99.90;;;;;;5012925;28;20639;-68
2021/10/05 01:09:14;;;;;;;2.90;2.70;;;14.00;99.90;;;;;;5013551;28;20881;-68
2021/10/05 01:11:40;;;;;;;2.97;2.87;;;14.00;99.90;;;;;;5013290;28;20493;-68
2021/10/05 01:14:06;;;;;;;3.00;2.90;;;14.00;99.90;;;;;;5013085;28;20512;-69
2021/10/05 01:16:32;;;;;;;3.00;2.70;;;14.00;99.90;;;;;;5012770;28;20171;-68
2021/10/05 01:18:57;;;;;;;2.90;2.70;;;14.00;99.90;;;;;;5012104;28;20424;-69
2021/10/05 01:21:23;;;;;;;2.87;2.77;;;14.00;99.90;;;;;;5012339;28;20210;-68
2021/10/05 01:23:49;;;;;;;3.07;2.97;;;14.10;99.90;;;;;;5013312;28;20615;-68
2021/10/05 01:26:14;;;;;;;3.17;3.07;;;14.20;99.90;;;;;;5013195;28;20184;-68
2021/10/05 01:28:40;;;;;;;2.93;2.77;;;14.30;99.90;;;;;;5012325;28;20247;-68
2021/10/05 01:31:06;;;;;;;3.53;3.27;;;14.40;99.90;;;;;;5013165;28;20184;-69
2021/10/05 01:33:31;;;;;;;3.23;2.93;;;14.50;99.90;;;;;;5012330;28;20180;-68
2021/10/05 01:35:57;;;;;;;3.23;3.00;;;14.60;99.90;;;;;;5013074;28;20181;-69
2021/10/05 01:38:23;;;;;;;2.97;2.83;;;14.60;99.90;;;;;;5012500;28;20625;-69
2021/10/05 01:40:49;;;;;;;3.27;2.90;;;14.70;99.90;;;;;;5012811;28;20237;-69
2021/10/05 01:43:15;;;;;;;3.17;3.07;;;14.80;99.90;;;;;;5013057;28;20412;-68
2021/10/05 01:45:41;;;;;;;3.00;2.90;;;14.80;99.90;;;;;;5012296;28;20173;-68
2021/10/05 01:48:08;;;;;;;3.00;2.90;;;14.80;99.90;;;;;;5012920;28;20775;-69
2021/10/05 01:50:35;;;;;;;3.00;2.90;;;14.80;99.90;;;;;;5011997;28;20407;-69
2021/10/05 01:53:01;;;;;;;3.00;2.87;;;14.80;99.90;;;;;;5012898;28;20729;-68
2021/10/05 01:55:27;;;;;;;3.47;3.17;;;14.90;99.90;;;;;;5012571;28;20507;-69
2021/10/05 01:57:53;;;;;;;2.90;2.80;;;14.90;99.90;;;;;;5012638;28;20422;-67
2021/10/05 02:00:19;;;;;;;3.33;3.13;;;14.90;99.90;;;;;;5012761;28;20301;-74
2021/10/05 02:02:45;;;;;;;3.03;2.93;;;14.90;99.90;;;;;;5011640;28;20453;-67
2021/10/05 02:05:11;;;;;;;3.50;3.20;;;15.00;99.90;;;;;;5012341;28;20495;-68
2021/10/05 02:07:37;;;;;;;3.23;2.97;;;14.90;99.90;;;;;;5012158;28;20186;-68
2021/10/05 02:10:06;;;;;;;3.07;2.90;;;15.00;99.90;;;;;;5012808;28;20176;-67
2021/10/05 02:12:31;;;;;;;2.93;2.83;;;14.90;99.90;;;;;;5012144;28;20408;-67
2021/10/05 02:14:57;;;;;;;3.40;3.10;;;14.90;99.90;;;;;;5012698;28;20435;-66
2021/10/05 02:17:23;;;;;;;3.37;3.07;;;14.80;99.90;;;;;;5011838;28;20985;-67
2021/10/05 02:19:49;;;;;;;3.77;3.57;;;14.70;99.90;;;;;;5012795;28;20255;-67
2021/10/05 02:22:14;;;;;;;3.40;3.20;;;14.70;99.90;;;;;;5012593;28;20228;-67
2021/10/05 02:24:44;;;;;;;3.80;3.53;;;14.70;99.90;;;;;;5010852;28;20180;-67
2021/10/05 02:27:16;;;;;;;3.27;3.17;;;14.70;99.90;;;;;;5012654;28;20415;-66
2021/10/05 02:29:42;;;;;;;3.20;3.00;;;14.70;99.90;;;;;;5011940;28;20404;-66
2021/10/05 02:32:10;;;;;;;3.23;3.10;;;14.70;99.90;;;;;;5012578;28;20407;-67
2021/10/05 02:34:36;;;;;;;3.43;3.30;;;14.70;99.90;;;;;;5011936;28;20412;-69
2021/10/05 02:37:04;;;;;;;3.30;3.20;;;14.80;99.90;;;;;;5011955;28;20757;-67
2021/10/05 02:39:29;;;;;;;3.00;2.80;;;14.80;99.90;;;;;;5011913;28;20466;-67
2021/10/05 02:41:55;;;;;;;3.83;3.70;;;14.80;99.90;;;;;;5012503;28;20549;-67
2021/10/05 02:44:21;;;;;;;4.10;3.90;;;14.80;99.90;;;;;;5012042;28;20652;-74
2021/10/05 02:46:47;;;;;;;3.80;3.60;;;14.70;99.90;;;;;;5012451;28;20249;-67
2021/10/05 02:49:14;;;;;;;3.63;3.43;;;14.80;99.90;;;;;;5012443;28;20460;-67
2021/10/05 02:51:40;;;;;;;4.00;3.80;;;14.80;99.90;;;;;;5011519;28;20288;-67
2021/10/05 02:54:06;;;;;;;3.70;3.50;;;14.80;99.90;;;;;;5012337;28;20400;-67
2021/10/05 02:56:32;;;;;;;3.53;3.33;;;14.90;99.90;;;;;;5011491;28;20420;-66
2021/10/05 02:58:58;;;;;;;3.50;3.30;;;14.80;99.90;;;;;;5012293;28;20871;-69
2021/10/05 03:01:23;;;;;;;3.90;3.57;;;14.70;99.90;;;;;;5011378;28;20216;-66
2021/10/05 03:03:49;;;;;;;3.40;3.10;;;14.80;99.90;;;;;;5014877;28;20232;-67
2021/10/05 03:06:15;;;;;;;3.70;3.43;;;14.90;99.90;;;;;;5015784;28;20546;-68
2021/10/05 03:08:42;;;;;;;3.60;3.43;;;14.80;99.90;;;;;;5015118;28;20203;-69
2021/10/05 03:11:09;;;;;;;4.20;3.90;;;14.80;99.90;;;;;;5015275;28;20464;-69
2021/10/05 03:13:35;;;;;;;4.03;3.83;;;15.00;99.90;;;;;;5015014;28;20396;-69
2021/10/05 03:16:08;;;;;;;3.70;3.50;;;14.90;99.90;;;;;;5015271;28;20937;-69
2021/10/05 03:18:34;;;;;;;4.23;3.93;;;15.00;99.90;;;;;;5014947;28;20408;-67
2021/10/05 03:21:00;;;;;;;3.90;3.70;;;14.90;99.90;;;;;;5015600;28;20921;-67
2021/10/05 03:23:26;;;;;;;4.10;3.90;;;15.00;99.90;;;;;;5014830;28;20437;-69
2021/10/05 03:25:52;;;;;;;4.47;4.10;;;15.00;99.90;;;;;;5015197;28;20439;-68
2021/10/05 03:28:18;;;;;;;4.17;3.97;;;14.90;99.90;;;;;;5015307;28;20405;-68
2021/10/05 03:30:43;;;;;;;4.73;4.43;;;14.80;99.90;;;;;;5014720;28;20418;-69
2021/10/05 03:33:09;;;;;;;6.63;6.03;;;14.80;99.90;;;;;;5015026;28;20926;-69
2021/10/05 03:35:35;;;;;;;5.50;5.10;;;14.80;99.90;;;;;;5014581;28;20636;-68
2021/10/05 03:38:01;;;;;;;5.27;4.97;;;14.70;99.90;;;;;;5015428;28;20180;-69
2021/10/05 03:40:27;;;;;;;5.27;4.93;;;14.80;99.90;;;;;;5014403;28;20210;-70
2021/10/05 03:42:53;;;;;;;5.53;5.23;;;14.80;99.90;;;;;;5014711;28;20497;-69
2021/10/05 03:45:19;;;;;;;6.90;6.30;;;14.80;99.90;;;;;;5014990;28;20867;-69
2021/10/05 03:47:45;;;;;;;5.60;5.20;;;14.80;99.90;;;;;;5014449;28;20217;-68
2021/10/05 03:50:11;;;;;;;5.47;5.07;;;14.50;99.90;;;;;;5014941;28;20183;-68
2021/10/05 03:52:38;;;;;;;6.10;5.67;;;14.40;99.90;;;;;;5014355;28;20538;-69
2021/10/05 03:55:08;;;;;;;6.93;6.33;;;14.40;99.90;;;;;;5014852;28;20450;-68
2021/10/05 03:57:35;;;;;;;5.20;4.80;;;14.40;99.90;;;;;;5014487;28;20430;-69
2021/10/05 04:00:02;;;;;;;5.40;4.60;;;14.30;99.90;;;;;;5014731;28;20398;-68
2021/10/05 04:02:27;;;;;;;7.80;7.40;;;14.30;99.90;;;;;;5014142;28;20449;-69
2021/10/05 04:04:53;;;;;;;4.40;4.10;;;14.30;99.90;;;;;;5012933;28;20489;-69
2021/10/05 04:07:19;;;;;;;3.80;3.53;;;14.40;99.90;;;;;;5014421;28;20214;-69
2021/10/05 04:09:45;;;;;;;7.70;6.90;;;14.50;99.90;;;;;;5013925;28;20878;-69
2021/10/05 04:12:10;;;;;;;4.30;3.93;;;14.50;99.90;;;;;;5013400;28;20182;-68
2021/10/05 04:14:36;;;;;;;6.07;5.77;;;14.60;99.90;;;;;;5013611;28;20181;-69
2021/10/05 04:17:02;;;;;;;4.23;4.00;;;14.60;99.90;;;;;;5014415;28;20176;-70
2021/10/05 04:19:28;;;;;;;4.43;4.13;;;14.60;99.90;;;;;;5013762;28;20425;-70
2021/10/05 04:21:54;;;;;;;6.83;6.37;;;14.50;99.90;;;;;;5012815;28;20454;-69
2021/10/05 04:24:20;;;;;;;4.80;4.50;;;14.60;99.90;;;;;;5014227;28;20194;-68
2021/10/05 04:26:46;;;;;;;4.53;4.23;;;14.60;99.90;;;;;;5011738;28;20479;-69
2021/10/05 04:29:11;;;;;;;6.00;5.60;;;14.60;99.90;;;;;;5014217;28;20257;-69
2021/10/05 04:31:39;;;;;;;5.23;4.13;;;14.60;99.90;;;;;;5013516;28;20172;-68
2021/10/05 04:34:05;;;;;;;4.00;3.77;;;14.70;99.90;;;;;;5014242;28;20187;-68
2021/10/05 04:36:30;;;;;;;4.80;4.40;;;14.70;99.90;;;;;;5013570;28;20414;-69
2021/10/05 04:38:57;;;;;;;4.87;4.57;;;14.70;99.90;;;;;;5014013;28;20183;-69
2021/10/05 04:41:23;;;;;;;4.20;3.90;;;14.70;99.90;;;;;;5013820;28;20210;-68
2021/10/05 04:43:49;;;;;;;5.00;4.70;;;14.70;99.90;;;;;;5013305;28;20906;-69
2021/10/05 04:46:14;;;;;;;5.40;5.10;;;14.70;99.90;;;;;;5013516;28;20271;-68
2021/10/05 04:48:40;;;;;;;4.90;4.60;;;14.70;99.90;;;;;;5013244;28;20242;-69
2021/10/05 04:51:06;;;;;;;6.33;5.83;;;14.60;99.90;;;;;;5013723;28;20179;-69
2021/10/05 04:53:31;;;;;;;5.50;5.13;;;14.60;99.90;;;;;;5013246;28;20251;-69
2021/10/05 04:55:57;;;;;;;6.17;5.77;;;14.60;99.90;;;;;;5013378;28;20184;-68
2021/10/05 04:58:23;;;;;;;5.10;4.77;;;14.70;99.90;;;;;;5013613;28;20230;-68
2021/10/05 05:00:50;;;;;;;5.70;5.30;;;14.70;99.90;;;;;;5011324;28;20487;-69
2021/10/05 05:03:16;;;;;;;8.97;8.40;;;14.70;99.90;;;;;;5013202;28;20188;-69
2021/10/05 05:05:42;;;;;;;6.07;5.57;;;14.70;99.90;;;;;;5013115;28;20419;-68
2021/10/05 05:08:07;;;;;;;6.93;6.43;;;14.70;99.90;;;;;;5013494;28;20767;-69
2021/10/05 05:10:33;;;;;;;7.50;7.00;;;14.70;99.90;;;;;;5012843;28;20229;-67
2021/10/05 05:12:59;;;;;;;9.67;8.83;;;14.70;99.90;;;;;;5013377;28;20238;-69
2021/10/05 05:15:25;;;;;;;7.13;6.53;;;14.60;99.90;;;;;;5013392;28;20175;-69
2021/10/05 05:17:51;;;;;;;8.90;8.20;;;14.60;99.90;;;;;;5012842;28;20185;-69
2021/10/05 05:20:16;;;;;;;10.77;9.83;;;14.50;99.90;;;;;;5011997;28;20183;-68
2021/10/05 05:22:44;;;;;;;7.83;7.30;;;14.50;99.90;;;;;;5012713;28;20594;-69
2021/10/05 05:25:10;;;;;;;8.70;8.00;;;14.50;99.90;;;;;;5012637;28;20179;-68
2021/10/05 05:27:36;;;;;;;8.43;7.83;;;14.50;99.90;;;;;;5012607;28;20476;-69
2021/10/05 05:30:02;;;;;;;7.27;6.70;;;14.50;99.90;;;;;;5012441;28;20246;-69
2021/10/05 05:32:28;;;;;;;6.90;6.40;;;14.50;99.90;;;;;;5012726;28;20204;-69
2021/10/05 05:34:54;;;;;;;8.27;7.57;;;14.40;99.90;;;;;;5011592;28;20905;-69
2021/10/05 05:37:19;;;;;;;7.10;6.60;;;14.40;99.90;;;;;;5012636;28;20182;-69
2021/10/05 05:39:45;;;;;;;8.37;7.57;;;14.40;99.90;;;;;;5012107;28;20208;-69
2021/10/05 05:42:12;;;;;;;8.73;7.80;;;14.40;99.90;;;;;;5013185;28;20214;-69
2021/10/05 05:44:39;;;;;;;7.90;7.20;;;14.40;99.90;;;;;;5012376;28;20544;-69
2021/10/05 05:47:05;;;;;;;8.20;7.60;;;14.40;99.90;;;;;;5012322;28;20430;-69
2021/10/05 05:49:32;;;;;;;9.77;8.97;;;14.40;99.90;;;;;;5012733;28;20406;-68
2021/10/05 05:51:57;;;;;;;8.07;7.37;;;14.40;99.90;;;;;;5012648;28;20417;-69
2021/10/05 05:54:23;;;;;;;8.57;7.87;;;14.40;99.90;;;;;;5012672;28;20416;-69
2021/10/05 05:56:49;;;;;;;8.00;7.20;;;14.40;99.90;;;;;;5012264;28;20179;-69
2021/10/05 05:59:15;;;;;;;8.17;7.47;;;14.50;99.90;;;;;;5012688;28;20447;-69
2021/10/05 06:01:41;;;;;;;8.80;8.00;;;14.40;99.90;;;;;;5012110;28;20244;-69
2021/10/05 06:04:07;;;;;;;11.97;11.00;;;14.40;99.90;;;;;;5012449;28;20229;-68
2021/10/05 06:06:33;;;;;;;7.90;7.27;;;14.40;99.90;;;;;;5012491;28;20422;-76
2021/10/05 06:09:02;;;;;;;8.30;7.57;;;14.50;99.90;;;;;;5012657;28;20413;-69
2021/10/05 06:11:31;;;;;;;11.70;10.87;;;14.40;99.90;;;;;;5012588;28;20424;-69
2021/10/05 06:13:57;;;;;;;7.33;6.63;;;14.40;99.90;;;;;;5012076;28;20403;-69
2021/10/05 06:16:23;;;;;;;7.03;6.53;;;14.50;99.90;;;;;;5011800;28;20509;-68
2021/10/05 06:18:49;;;;;;;11.00;10.20;;;14.50;99.90;;;;;;5011987;28;20179;-69
2021/10/05 06:21:14;;;;;;;11.53;9.80;;;14.50;99.90;;;;;;5009033;28;20556;-68
2021/10/05 06:23:40;;;;;;;8.27;7.60;;;14.30;99.90;;;;;;4992176;28;20177;-69
2021/10/05 06:26:06;;;;;;;8.27;7.67;;;14.20;99.90;;;;;;4992970;28;20194;-69
2021/10/05 06:28:32;;;;;;;7.97;7.37;;;14.20;99.90;;;;;;4992956;28;20414;-72
2021/10/05 06:30:58;;;;;;;11.13;10.43;;;14.20;99.90;;;;;;4992312;28;20416;-72
2021/10/05 06:33:24;;;;;;;6.60;6.20;;;14.30;99.90;;;;;;5009541;28;20429;-74
2021/10/05 06:35:50;;;;;;;6.20;5.63;;;14.40;99.90;;;;;;5008871;28;20183;-72
2021/10/05 06:38:16;;;;;;;7.43;6.93;;;14.60;99.90;;;;;;5015801;28;20419;-72
2021/10/05 06:40:42;;;;;;;7.10;6.40;;;14.70;99.90;;;;;;5014810;28;20211;-72
2021/10/05 06:43:09;;;;;;;7.70;7.07;;;14.70;99.90;;;;;;5015163;28;20419;-72
2021/10/05 06:45:35;;;;;;;22.53;17.13;;;14.70;99.90;;;;;;5015484;28;20809;-72
2021/10/05 06:48:01;;;;;;;9.00;8.20;;;14.60;99.90;;;;;;5015409;28;20428;-73
2021/10/05 06:50:30;;;;;;;7.20;6.60;;;14.70;99.90;;;;;;5015938;28;20996;-72
2021/10/05 06:52:56;;;;;;;5.90;5.40;;;14.70;99.90;;;;;;5015030;28;20194;-72
2021/10/05 06:55:22;;;;;;;9.10;8.40;;;14.80;99.90;;;;;;5015853;28;20412;-72
2021/10/05 06:57:48;;;;;;;10.00;9.40;;;14.80;99.90;;;;;;5008299;28;20416;-72
2021/10/05 07:00:17;;;;;;;8.73;8.03;;;14.90;99.90;;;;;;5009629;28;20183;-72
2021/10/05 07:02:45;;;;;;;7.27;6.77;;;14.80;99.90;;;;;;5015071;28;20230;-73
2021/10/05 07:05:12;;;;;;;8.50;7.90;;;14.80;99.90;;;;;;5014816;28;20464;-72
2021/10/05 07:07:39;;;;;;;6.90;6.30;;;14.90;99.90;;;;;;5014784;28;20791;-81
2021/10/05 07:10:06;;;;;;;8.63;7.97;;;15.00;99.90;;;;;;5014342;28;20423;-72
2021/10/05 07:12:31;;;;;;;9.50;6.60;;;15.10;99.90;;;;;;5015534;28;20470;-72
2021/10/05 07:14:57;;;;;;;6.03;5.00;;;15.20;99.90;;;;;;5012769;28;21050;-77
2021/10/05 07:17:23;;;;;;;8.00;7.43;;;15.10;99.90;;;;;;5015318;28;20210;-72
2021/10/05 07:19:48;;;;;;;6.53;6.13;;;15.10;99.90;;;;;;5013708;28;20182;-73
2021/10/05 07:22:14;;;;;;;6.80;6.20;;;15.20;99.90;;;;;;5014838;28;20212;-72
2021/10/05 07:24:40;;;;;;;8.57;7.87;;;15.30;99.90;;;;;;5014745;28;20269;-72
2021/10/05 07:27:05;;;;;;;6.73;6.33;;;15.30;99.90;;;;;;5015278;28;20277;-72
2021/10/05 07:29:31;;;;;;;8.20;7.60;;;15.30;99.90;;;;;;5014785;28;20549;-71
2021/10/05 07:31:57;;;;;;;7.03;6.63;;;15.40;99.90;;;;;;5013743;28;20193;-72
2021/10/05 07:34:23;;;;;;;5.70;5.20;;;15.50;99.90;;;;;;5014034;28;20174;-73
2021/10/05 07:36:48;;;;;;;5.97;5.50;;;15.40;99.90;;;;;;5012077;28;20194;-73
2021/10/05 07:39:14;;;;;;;9.00;8.37;;;15.40;99.90;;;;;;5001096;28;20214;-72
2021/10/05 07:41:43;;;;;;;7.70;7.10;;;15.50;99.90;;;;;;4994636;28;20243;-74
2021/10/05 07:44:10;;;;;;;8.73;7.13;;;15.50;99.90;;;;;;4998892;28;20205;-73
2021/10/05 07:46:36;;;;;;;5.60;5.20;;;15.60;99.90;;;;;;5015061;28;20504;-72
2021/10/05 07:49:03;;;;;;;5.50;5.20;;;15.70;99.90;;;;;;5013748;28;20879;-72
2021/10/05 07:51:28;;;;;;;5.53;5.13;;;15.70;99.90;;;;;;5014570;28;20418;-72
2021/10/05 07:53:54;;;;;;;6.13;5.73;;;15.70;99.90;;;;;;5013928;28;20486;-73
2021/10/05 07:56:20;;;;;;;7.23;5.07;;;15.70;99.90;;;;;;5002100;28;20178;-72
2021/10/05 07:58:45;;;;;;;5.80;5.40;;;15.80;99.90;;;;;;5000216;28;20193;-72
2021/10/05 08:01:11;;;;;;;5.40;5.00;;;15.80;99.90;;;;;;5014658;28;20650;-72
2021/10/05 08:03:37;;;;;;;4.97;4.67;;;15.80;99.90;;;;;;5014309;28;20226;-72
2021/10/05 08:06:02;;;;;;;4.90;4.60;;;15.80;99.90;;;;;;5013899;28;20186;-72
2021/10/05 08:08:28;;;;;;;4.93;4.63;;;15.90;99.90;;;;;;5014666;28;20542;-72
2021/10/05 08:10:54;;;;;;;5.83;5.53;;;15.80;99.90;;;;;;4999104;28;20680;-72
2021/10/05 08:13:20;;;;;;;5.03;4.73;;;15.70;99.90;;;;;;4995145;28;20183;-73
2021/10/05 08:15:47;;;;;;;5.87;5.47;;;15.80;99.90;;;;;;5013656;28;20487;-72
2021/10/05 08:18:12;;;;;;;5.27;4.80;;;15.80;99.90;;;;;;5014148;28;20176;-71
2021/10/05 08:20:39;;;;;;;3.87;3.67;;;15.90;99.90;;;;;;5013460;28;20950;-72
2021/10/05 08:23:05;;;;;;;3.97;3.70;;;15.90;99.90;;;;;;5007472;28;20465;-72
2021/10/05 08:25:31;;;;;;;7.43;6.90;;;16.00;99.90;;;;;;5014128;28;20435;-71
2021/10/05 08:27:57;;;;;;;5.50;5.20;;;16.20;99.90;;;;;;5013619;28;20413;-71
2021/10/05 08:30:23;;;;;;;6.00;5.60;;;16.20;99.90;;;;;;4996889;28;20436;-71
2021/10/05 08:32:49;;;;;;;4.10;3.80;;;16.00;99.90;;;;;;4993907;28;20182;-71
2021/10/05 08:35:15;;;;;;;4.10;3.90;;;16.00;99.90;;;;;;4994688;28;20796;-72
2021/10/05 08:37:41;;;;;;;6.00;5.70;;;16.00;99.90;;;;;;4994544;28;20420;-72
2021/10/05 08:40:09;;;;;;;3.57;3.37;;;16.00;99.90;;;;;;4994431;28;20183;-71
2021/10/05 08:42:35;;;;;;;3.63;3.43;;;15.90;99.90;;;;;;5011842;28;20781;-71
2021/10/05 08:45:03;;;;;;;6.67;6.37;;;15.90;99.90;;;;;;5013267;28;20422;-71
2021/10/05 08:47:29;;;;;;;5.37;4.97;;;16.00;99.90;;;;;;5013877;28;20410;-71
2021/10/05 08:49:55;;;;;;;3.40;3.20;;;16.00;99.90;;;;;;5012411;28;20429;-72
2021/10/05 08:52:21;;;;;;;4.43;4.23;;;16.00;99.90;;;;;;5011727;28;20424;-71
2021/10/05 08:54:47;;;;;;;4.70;4.50;;;16.00;99.90;;;;;;5012494;28;20429;-77
2021/10/05 08:57:13;;;;;;;4.23;4.00;;;16.00;99.90;;;;;;5013203;28;20455;-71
2021/10/05 08:59:40;;;;;;;4.33;4.13;;;16.10;99.90;;;;;;5012353;28;20232;-72
2021/10/05 09:02:13;;;;;;;3.40;3.20;;;16.10;99.90;;;;;;5012453;28;20460;-71
2021/10/05 09:04:40;;;;;;;3.57;3.27;;;16.20;99.90;;;;;;5013535;28;20470;-71
2021/10/05 09:07:20;;;;;;;3.63;3.43;;;16.30;99.90;;;;;;5012556;28;20414;-71
2021/10/05 09:10:02;;;;;;;3.83;3.63;;;16.30;99.90;;;;;;5008913;28;20426;-76
2021/10/05 09:12:31;;;;;;;4.30;3.90;;;16.20;99.90;;;;;;5010036;28;20421;-71
2021/10/05 09:14:58;;;;;;;4.23;4.03;;;16.30;99.90;;;;;;5012379;28;20417;-72
2021/10/05 09:17:26;;;;;;;6.03;5.83;;;16.40;99.90;;;;;;5012527;28;20936;-71
2021/10/05 09:19:53;;;;;;;3.20;3.00;;;16.40;99.50;;;;;;5010721;28;20512;-71
2021/10/05 09:22:25;;;;;;;3.47;3.37;;;16.30;99.00;;;;;;5010484;28;20457;-69
2021/10/05 09:24:54;;;;;;;4.67;4.47;;;16.40;99.10;;;;;;5011995;28;20418;-69
2021/10/05 09:27:21;;;;;;;4.43;4.20;;;16.50;99.30;;;;;;5012491;28;20514;-68
2021/10/05 09:29:49;;;;;;;4.30;4.10;;;16.50;99.20;;;;;;5012596;28;20758;-69
2021/10/05 09:32:25;;;;;;;2.70;2.60;;;16.40;98.70;;;;;;5012593;28;20454;-68
2021/10/05 09:34:56;;;;;;;4.73;4.43;;;16.40;99.10;;;;;;5012076;28;20512;-69
2021/10/05 09:37:31;;;;;;;3.60;3.40;;;16.60;99.00;;;;;;5013181;28;20403;-67
2021/10/05 09:40:03;;;;;;;3.10;3.00;;;16.70;99.10;;;;;;5005811;28;20407;-68
2021/10/05 09:42:36;;;;;;;3.47;3.27;;;16.70;98.40;;;;;;4993567;28;20808;-68
2021/10/05 09:45:05;;;;;;;3.80;3.70;;;16.70;98.20;;;;;;4992817;28;20795;-68
2021/10/05 09:47:36;;;;;;;4.90;4.60;;;16.90;97.90;;;;;;4993449;28;20433;-67
2021/10/05 09:50:12;;;;;;;3.63;3.43;;;16.80;98.00;;;;;;4999668;28;20418;-68
2021/10/05 09:53:05;;;;;;;3.77;3.57;;;17.00;98.10;;;;;;4994284;28;20903;-68
2021/10/05 09:55:34;;;;;;;3.13;3.03;;;17.10;97.30;;;;;;5002981;28;20407;-67
2021/10/05 09:58:00;;;;;;;3.17;3.07;;;17.10;96.50;;;;;;4992311;28;20426;-68
2021/10/05 10:00:28;;;;;;;3.30;3.10;;;17.10;96.20;;;;;;4997310;28;20418;-67
2021/10/05 10:02:54;;;;;;;5.03;4.83;;;17.00;96.60;;;;;;5011966;28;20599;-68
2021/10/05 10:05:25;;;;;;;4.90;4.60;;;17.10;97.30;;;;;;5012891;28;20537;-68
2021/10/05 10:07:56;;;;;;;5.07;3.43;;;17.30;97.30;;;;;;5012201;28;20266;-68
2021/10/05 10:10:31;;;;;;;3.73;3.43;;;17.40;96.70;;;;;;5012642;28;20425;-67
2021/10/05 10:13:04;;;;;;;4.17;4.00;;;17.60;97.50;;;;;;5014327;28;20414;-68
2021/10/05 10:15:36;;;;;;;3.30;3.10;;;17.90;96.50;;;;;;5016799;28;20402;-68
2021/10/05 10:18:12;;;;;;;3.63;3.43;;;18.20;95.20;;;;;;5014331;28;20425;-68
2021/10/05 10:20:41;;;;;;;3.17;2.97;;;18.50;95.60;;;;;;4996588;28;20973;-66
2021/10/05 10:23:24;;;;;;;2.93;2.83;;;19.00;94.90;;;;;;4996386;28;20414;-66
2021/10/05 10:26:04;;;;;;;3.70;3.60;;;18.90;93.20;;;;;;4996416;28;20418;-68
2021/10/05 10:28:38;;;;;;;4.10;4.00;;;19.10;93.00;;;;;;5003665;28;20420;-67
2021/10/05 10:31:34;;;;;;;3.23;2.93;;;19.00;91.40;;;;;;5015850;28;20429;-68
2021/10/05 10:34:00;;;;;;;3.50;3.40;;;19.30;93.20;;;;;;5010849;28;20434;-68
2021/10/05 10:36:38;;;;;;;4.57;2.30;;;19.80;93.70;;;;;;5016291;28;20428;-67
2021/10/05 10:39:10;;;;;;;2.40;2.30;;;20.20;91.80;;;;;;5015578;28;20420;-68
2021/10/05 10:41:40;;;;;;;4.80;4.60;;;20.50;90.60;;;;;;5016155;28;20548;-68
2021/10/05 10:44:10;;;;;;;2.30;2.13;;;20.80;87.10;;;;;;5015542;28;20882;-67
2021/10/05 10:46:38;;;;;;;3.07;2.90;;;20.80;87.30;;;;;;5015117;28;20783;-68
2021/10/05 10:49:19;;;;;;;2.90;2.70;;;20.70;86.30;;;;;;5015543;28;20895;-68
2021/10/05 10:51:48;;;;;;;2.87;2.77;;;20.90;89.00;;;;;;5015610;28;20410;-68
2021/10/05 10:54:18;;;;;;;3.87;3.67;;;21.10;86.30;;;;;;5015009;28;20437;-68
2021/10/05 10:56:46;;;;;;;5.20;5.00;;;21.00;83.80;;;;;;5015889;28;20467;-68
2021/10/05 10:59:19;;;;;;;3.83;3.63;;;21.00;84.90;;;;;;5015262;28;20413;-67
2021/10/05 11:01:46;;;;;;;4.17;3.97;;;21.00;85.40;;;;;;5015920;28;20495;-67
2021/10/05 11:04:14;;;;;;;4.00;3.90;;;20.70;85.20;;;;;;5015198;28;20457;-67
2021/10/05 11:06:47;;;;;;;3.90;3.70;;;20.50;85.10;;;;;;5015792;28;20929;-67
2021/10/05 11:09:14;;;;;;;3.47;3.33;;;20.50;88.30;;;;;;5015215;28;20444;-68
2021/10/05 11:11:48;;;;;;;4.00;3.80;;;20.20;85.70;;;;;;5015223;28;20522;-67
2021/10/05 11:14:20;;;;;;;2.80;2.60;;;20.20;87.30;;;;;;5015067;28;20409;-68
2021/10/05 11:16:56;;;;;;;4.23;3.00;;;20.20;87.60;;;;;;5004682;28;20403;-67
2021/10/05 11:19:27;;;;;;;2.87;2.70;;;20.40;88.00;;;;;;4995964;28;20457;-68
2021/10/05 11:21:53;;;;;;;3.43;3.23;;;20.70;87.80;;;;;;4996760;28;20439;-73
2021/10/05 11:24:19;;;;;;;4.40;4.10;;;20.50;84.90;;;;;;5010447;28;20515;-68
2021/10/05 11:26:51;;;;;;;3.13;3.00;;;20.70;88.60;;;;;;5013803;28;20183;-67
2021/10/05 11:29:25;;;;;;;4.20;2.97;;;21.00;87.40;;;;;;5015417;28;20490;-67
2021/10/05 11:31:57;;;;;;;3.50;3.30;;;21.40;87.40;;;;;;5014154;28;20413;-67
2021/10/05 11:34:23;;;;;;;2.90;2.80;;;21.20;82.50;;;;;;5013945;28;20537;-67
2021/10/05 11:36:50;;;;;;;3.23;3.03;;;21.20;84.50;;;;;;5014924;28;20956;-67
2021/10/05 11:39:26;;;;;;;3.23;2.93;;;21.40;84.00;;;;;;5013451;28;20406;-68
2021/10/05 11:41:56;;;;;;;2.60;2.50;;;21.70;84.20;;;;;;5009693;28;20469;-68
2021/10/05 11:44:25;;;;;;;3.00;2.90;;;21.50;81.50;;;;;;4995658;28;20391;-68
2021/10/05 11:46:56;;;;;;;2.80;2.70;;;21.30;80.30;;;;;;5010572;28;20446;-68
2021/10/05 11:49:27;;;;;;;4.50;4.30;;;21.20;81.70;;;;;;5008322;28;20456;-68
2021/10/05 11:51:54;;;;;;;3.00;2.90;;;21.10;81.20;;;;;;5014459;28;20401;-68
2021/10/05 11:54:26;;;;;;;4.67;4.47;;;21.00;81.90;;;;;;5014896;28;20414;-68
2021/10/05 11:56:54;;;;;;;2.93;2.83;;;20.70;82.30;;;;;;5014980;28;20441;-68
2021/10/05 11:59:26;;;;;;;3.40;3.30;;;20.40;84.00;;;;;;5014130;28;20889;-68
2021/10/05 12:02:01;;;;;;;2.83;2.73;;;20.50;85.90;;;;;;5012629;28;20517;-68
2021/10/05 12:04:28;;;;;;;2.70;2.50;;;20.60;84.60;;;;;;5005611;28;21026;-68
2021/10/05 12:07:00;;;;;;;3.00;2.90;;;20.50;85.30;;;;;;4997529;28;20419;-68
2021/10/05 12:09:27;;;;;;;3.27;3.07;;;20.40;84.90;;;;;;4994457;28;20403;-68
2021/10/05 12:11:57;;;;;;;3.50;3.20;;;20.20;86.20;;;;;;4994145;28;20853;-68
2021/10/05 12:14:29;;;;;;;3.20;3.00;;;19.90;85.80;;;;;;5008681;28;20402;-68
2021/10/05 12:16:59;;;;;;;3.50;3.20;;;19.40;86.90;;;;;;5011221;28;20402;-68
2021/10/05 12:19:32;;;;;;;4.63;4.37;;;19.30;88.30;;;;;;5012232;28;20494;-68
2021/10/05 12:21:59;;;;;;;3.73;3.40;;;19.20;89.10;;;;;;5007983;28;20553;-68
2021/10/05 12:25:03;;;;;;;2.93;2.83;;;19.30;89.40;;;;;;5013842;28;20462;-68
2021/10/05 12:27:35;;;;;;;3.30;3.20;;;19.40;88.70;;;;;;4933494;29;20906;-68
2021/10/05 12:30:18;;;;;;;3.10;3.00;;;19.50;88.40;;;;;;5002415;28;20440;-68
2021/10/05 12:32:55;;;;;;;3.30;3.10;;;19.40;89.60;;;;;;5014331;28;20430;-67
2021/10/05 12:35:30;;;;;;;3.90;3.70;;;19.40;90.30;;;;;;5014084;28;20425;-67
2021/10/05 12:38:06;;;;;;;4.70;4.50;;;19.20;90.20;;;;;;5013283;28;20444;-68
2021/10/05 12:40:45;;;;;;;4.33;4.07;;;19.10;90.00;;;;;;5013806;28;20899;-68
2021/10/05 12:43:13;;;;;;;3.10;2.87;;;19.10;89.50;;;;;;5013380;28;20750;-68
2021/10/05 12:45:39;;;;;;;3.43;3.33;;;19.00;90.20;;;;;;5013747;28;20414;-68
2021/10/05 12:48:07;;;;;;;3.30;3.10;;;18.90;90.50;;;;;;5011675;28;20497;-68